sensor_id;sensor_type;location;lat;lon;timestamp;P1;durP1;ratioP1;P2;durP2;ratioP2
35675;SDS011;21790;42.668;23.298;2024-02-21T00:01:47;13.93;;;8.30;;
35675;SDS011;21790;42.668;23.298;2024-02-21T00:04:13;13.98;;;8.77;;
35675;SDS011;21790;42.668;23.298;2024-02-21T00:06:39;10.95;;;6.15;;
35675;SDS011;21790;42.668;23.298;2024-02-21T00:09:05;14.40;;;8.70;;
35675;SDS011;21790;42.668;23.298;2024-02-21T00:11:30;10.07;;;6.72;;
35675;SDS011;21790;42.668;23.298;2024-02-21T00:13:56;9.35;;;5.82;;
35675;SDS011;21790;42.668;23.298;2024-02-21T00:16:22;9.18;;;5.88;;
35675;SDS011;21790;42.668;23.298;2024-02-21T00:18:49;9.77;;;6.30;;
35675;SDS011;21790;42.668;23.298;2024-02-21T00:21:15;11.70;;;6.30;;
35675;SDS011;21790;42.668;23.298;2024-02-21T00:23:43;10.77;;;6.65;;
35675;SDS011;21790;42.668;23.298;2024-02-21T00:26:13;9.95;;;6.45;;
35675;SDS011;21790;42.668;23.298;2024-02-21T00:28:40;9.68;;;6.38;;
35675;SDS011;21790;42.668;23.298;2024-02-21T00:31:05;11.82;;;7.07;;
35675;SDS011;21790;42.668;23.298;2024-02-21T00:33:31;7.95;;;5.40;;
35675;SDS011;21790;42.668;23.298;2024-02-21T00:35:58;9.20;;;5.95;;
35675;SDS011;21790;42.668;23.298;2024-02-21T00:38:23;8.52;;;6.18;;
35675;SDS011;21790;42.668;23.298;2024-02-21T00:40:49;8.43;;;5.85;;
35675;SDS011;21790;42.668;23.298;2024-02-21T00:43:15;9.55;;;5.88;;
35675;SDS011;21790;42.668;23.298;2024-02-21T00:45:41;8.00;;;5.22;;
35675;SDS011;21790;42.668;23.298;2024-02-21T00:48:08;7.20;;;5.60;;
35675;SDS011;21790;42.668;23.298;2024-02-21T00:50:34;9.43;;;5.55;;
35675;SDS011;21790;42.668;23.298;2024-02-21T00:53:00;9.27;;;6.07;;
35675;SDS011;21790;42.668;23.298;2024-02-21T00:55:26;8.65;;;5.57;;
35675;SDS011;21790;42.668;23.298;2024-02-21T00:57:52;7.95;;;5.38;;
35675;SDS011;21790;42.668;23.298;2024-02-21T01:00:18;8.57;;;5.75;;
35675;SDS011;21790;42.668;23.298;2024-02-21T01:02:44;10.73;;;6.75;;
35675;SDS011;21790;42.668;23.298;2024-02-21T01:05:11;7.82;;;5.85;;
35675;SDS011;21790;42.668;23.298;2024-02-21T01:07:37;8.60;;;6.47;;
35675;SDS011;21790;42.668;23.298;2024-02-21T01:10:04;8.57;;;6.22;;
35675;SDS011;21790;42.668;23.298;2024-02-21T01:12:30;10.27;;;6.78;;
35675;SDS011;21790;42.668;23.298;2024-02-21T01:14:56;8.38;;;6.43;;
35675;SDS011;21790;42.668;23.298;2024-02-21T01:17:22;8.85;;;6.60;;
35675;SDS011;21790;42.668;23.298;2024-02-21T01:19:48;8.73;;;6.30;;
35675;SDS011;21790;42.668;23.298;2024-02-21T01:22:14;10.02;;;6.15;;
35675;SDS011;21790;42.668;23.298;2024-02-21T01:24:41;8.73;;;6.10;;
35675;SDS011;21790;42.668;23.298;2024-02-21T01:27:07;9.65;;;6.70;;
35675;SDS011;21790;42.668;23.298;2024-02-21T01:29:33;8.30;;;6.22;;
35675;SDS011;21790;42.668;23.298;2024-02-21T01:31:59;10.05;;;6.03;;
35675;SDS011;21790;42.668;23.298;2024-02-21T01:34:25;8.73;;;5.80;;
35675;SDS011;21790;42.668;23.298;2024-02-21T01:36:51;9.65;;;6.75;;
35675;SDS011;21790;42.668;23.298;2024-02-21T01:39:17;8.65;;;5.93;;
35675;SDS011;21790;42.668;23.298;2024-02-21T01:41:43;8.73;;;5.88;;
35675;SDS011;21790;42.668;23.298;2024-02-21T01:44:09;9.90;;;6.40;;
35675;SDS011;21790;42.668;23.298;2024-02-21T01:46:35;8.25;;;5.55;;
35675;SDS011;21790;42.668;23.298;2024-02-21T01:49:01;7.13;;;5.63;;
35675;SDS011;21790;42.668;23.298;2024-02-21T01:51:27;8.15;;;5.97;;
35675;SDS011;21790;42.668;23.298;2024-02-21T01:53:54;7.60;;;5.57;;
35675;SDS011;21790;42.668;23.298;2024-02-21T01:56:22;9.40;;;6.38;;
35675;SDS011;21790;42.668;23.298;2024-02-21T01:58:49;9.98;;;6.53;;
35675;SDS011;21790;42.668;23.298;2024-02-21T02:01:16;8.98;;;6.63;;
35675;SDS011;21790;42.668;23.298;2024-02-21T02:03:42;10.85;;;7.45;;
35675;SDS011;21790;42.668;23.298;2024-02-21T02:06:10;13.52;;;7.95;;
35675;SDS011;21790;42.668;23.298;2024-02-21T02:08:36;12.65;;;8.90;;
35675;SDS011;21790;42.668;23.298;2024-02-21T02:11:02;14.07;;;9.45;;
35675;SDS011;21790;42.668;23.298;2024-02-21T02:13:28;13.93;;;9.43;;
35675;SDS011;21790;42.668;23.298;2024-02-21T02:15:54;16.90;;;9.38;;
35675;SDS011;21790;42.668;23.298;2024-02-21T02:18:20;15.05;;;9.00;;
35675;SDS011;21790;42.668;23.298;2024-02-21T02:20:47;12.85;;;8.95;;
35675;SDS011;21790;42.668;23.298;2024-02-21T02:25:58;15.07;;;9.18;;
35675;SDS011;21790;42.668;23.298;2024-02-21T02:28:26;15.70;;;10.02;;
35675;SDS011;21790;42.668;23.298;2024-02-21T02:30:52;17.50;;;10.25;;
35675;SDS011;21790;42.668;23.298;2024-02-21T02:33:17;14.13;;;9.98;;
35675;SDS011;21790;42.668;23.298;2024-02-21T02:35:43;16.77;;;10.73;;
35675;SDS011;21790;42.668;23.298;2024-02-21T02:38:10;15.23;;;10.27;;
35675;SDS011;21790;42.668;23.298;2024-02-21T02:40:40;16.45;;;10.60;;
35675;SDS011;21790;42.668;23.298;2024-02-21T02:43:06;15.45;;;10.63;;
35675;SDS011;21790;42.668;23.298;2024-02-21T02:45:32;16.65;;;10.27;;
35675;SDS011;21790;42.668;23.298;2024-02-21T02:47:59;17.00;;;11.00;;
35675;SDS011;21790;42.668;23.298;2024-02-21T02:50:25;17.67;;;11.13;;
35675;SDS011;21790;42.668;23.298;2024-02-21T02:52:52;17.23;;;11.00;;
35675;SDS011;21790;42.668;23.298;2024-02-21T02:55:18;17.67;;;11.43;;
35675;SDS011;21790;42.668;23.298;2024-02-21T02:57:44;16.45;;;10.57;;
35675;SDS011;21790;42.668;23.298;2024-02-21T03:00:16;15.13;;;10.27;;
35675;SDS011;21790;42.668;23.298;2024-02-21T03:02:43;16.63;;;10.90;;
35675;SDS011;21790;42.668;23.298;2024-02-21T03:05:15;16.42;;;10.75;;
35675;SDS011;21790;42.668;23.298;2024-02-21T03:07:44;16.17;;;11.40;;
35675;SDS011;21790;42.668;23.298;2024-02-21T03:10:10;16.58;;;10.63;;
35675;SDS011;21790;42.668;23.298;2024-02-21T03:12:37;18.13;;;11.32;;
35675;SDS011;21790;42.668;23.298;2024-02-21T03:15:03;19.15;;;10.98;;
35675;SDS011;21790;42.668;23.298;2024-02-21T03:17:30;16.92;;;10.75;;
35675;SDS011;21790;42.668;23.298;2024-02-21T03:19:56;18.80;;;11.75;;
35675;SDS011;21790;42.668;23.298;2024-02-21T03:22:22;17.70;;;10.50;;
35675;SDS011;21790;42.668;23.298;2024-02-21T03:24:48;16.20;;;10.77;;
35675;SDS011;21790;42.668;23.298;2024-02-21T03:27:14;18.05;;;10.98;;
35675;SDS011;21790;42.668;23.298;2024-02-21T03:29:40;17.20;;;11.02;;
35675;SDS011;21790;42.668;23.298;2024-02-21T03:32:05;16.08;;;10.65;;
35675;SDS011;21790;42.668;23.298;2024-02-21T03:34:31;14.70;;;9.65;;
35675;SDS011;21790;42.668;23.298;2024-02-21T03:36:57;16.17;;;11.13;;
35675;SDS011;21790;42.668;23.298;2024-02-21T03:39:24;16.85;;;10.50;;
35675;SDS011;21790;42.668;23.298;2024-02-21T03:44:18;19.38;;;11.43;;
35675;SDS011;21790;42.668;23.298;2024-02-21T03:46:51;18.05;;;11.02;;
35675;SDS011;21790;42.668;23.298;2024-02-21T03:49:17;19.00;;;11.77;;
35675;SDS011;21790;42.668;23.298;2024-02-21T03:51:43;19.25;;;11.50;;
35675;SDS011;21790;42.668;23.298;2024-02-21T03:54:08;18.67;;;11.77;;
35675;SDS011;21790;42.668;23.298;2024-02-21T03:56:38;18.20;;;11.23;;
35675;SDS011;21790;42.668;23.298;2024-02-21T03:59:05;17.20;;;10.70;;
35675;SDS011;21790;42.668;23.298;2024-02-21T04:01:34;19.50;;;11.43;;
35675;SDS011;21790;42.668;23.298;2024-02-21T04:04:00;18.75;;;11.68;;
35675;SDS011;21790;42.668;23.298;2024-02-21T04:06:26;18.40;;;11.70;;
35675;SDS011;21790;42.668;23.298;2024-02-21T04:08:52;17.40;;;11.13;;
35675;SDS011;21790;42.668;23.298;2024-02-21T04:11:18;20.25;;;12.32;;
35675;SDS011;21790;42.668;23.298;2024-02-21T04:13:44;19.35;;;12.35;;
35675;SDS011;21790;42.668;23.298;2024-02-21T04:16:10;19.70;;;12.32;;
35675;SDS011;21790;42.668;23.298;2024-02-21T04:18:36;23.02;;;13.02;;
35675;SDS011;21790;42.668;23.298;2024-02-21T04:21:02;20.58;;;13.20;;
35675;SDS011;21790;42.668;23.298;2024-02-21T04:23:29;20.73;;;12.02;;
35675;SDS011;21790;42.668;23.298;2024-02-21T04:25:55;23.27;;;13.02;;
35675;SDS011;21790;42.668;23.298;2024-02-21T04:28:21;23.42;;;15.10;;
35675;SDS011;21790;42.668;23.298;2024-02-21T04:36:17;20.83;;;13.73;;
35675;SDS011;21790;42.668;23.298;2024-02-21T04:38:42;28.17;;;13.93;;
35675;SDS011;21790;42.668;23.298;2024-02-21T04:41:08;21.80;;;13.40;;
35675;SDS011;21790;42.668;23.298;2024-02-21T04:43:34;20.83;;;13.40;;
35675;SDS011;21790;42.668;23.298;2024-02-21T04:46:00;25.42;;;14.80;;
35675;SDS011;21790;42.668;23.298;2024-02-21T04:48:26;22.63;;;14.07;;
35675;SDS011;21790;42.668;23.298;2024-02-21T04:50:54;21.00;;;12.98;;
35675;SDS011;21790;42.668;23.298;2024-02-21T04:53:20;26.45;;;14.57;;
35675;SDS011;21790;42.668;23.298;2024-02-21T04:55:46;20.23;;;13.27;;
35675;SDS011;21790;42.668;23.298;2024-02-21T04:58:12;26.42;;;14.35;;
35675;SDS011;21790;42.668;23.298;2024-02-21T05:00:39;22.45;;;14.15;;
35675;SDS011;21790;42.668;23.298;2024-02-21T05:03:06;21.73;;;14.05;;
35675;SDS011;21790;42.668;23.298;2024-02-21T05:05:33;21.25;;;13.48;;
35675;SDS011;21790;42.668;23.298;2024-02-21T05:08:00;22.05;;;13.60;;
35675;SDS011;21790;42.668;23.298;2024-02-21T05:10:27;21.52;;;14.07;;
35675;SDS011;21790;42.668;23.298;2024-02-21T05:12:53;28.27;;;14.45;;
35675;SDS011;21790;42.668;23.298;2024-02-21T05:15:20;24.38;;;13.35;;
35675;SDS011;21790;42.668;23.298;2024-02-21T05:17:46;21.95;;;14.18;;
35675;SDS011;21790;42.668;23.298;2024-02-21T05:20:12;23.80;;;15.05;;
35675;SDS011;21790;42.668;23.298;2024-02-21T05:22:39;25.30;;;13.80;;
35675;SDS011;21790;42.668;23.298;2024-02-21T05:25:06;20.13;;;12.95;;
35675;SDS011;21790;42.668;23.298;2024-02-21T05:27:32;23.23;;;13.00;;
35675;SDS011;21790;42.668;23.298;2024-02-21T05:30:00;22.80;;;14.73;;
35675;SDS011;21790;42.668;23.298;2024-02-21T05:32:26;23.13;;;13.85;;
35675;SDS011;21790;42.668;23.298;2024-02-21T05:34:53;25.65;;;14.63;;
35675;SDS011;21790;42.668;23.298;2024-02-21T05:37:20;25.80;;;14.32;;
35675;SDS011;21790;42.668;23.298;2024-02-21T05:39:46;24.83;;;14.80;;
35675;SDS011;21790;42.668;23.298;2024-02-21T05:42:13;22.58;;;14.63;;
35675;SDS011;21790;42.668;23.298;2024-02-21T05:44:39;27.50;;;14.60;;
35675;SDS011;21790;42.668;23.298;2024-02-21T05:47:05;24.33;;;14.30;;
35675;SDS011;21790;42.668;23.298;2024-02-21T05:49:35;28.58;;;14.38;;
35675;SDS011;21790;42.668;23.298;2024-02-21T05:52:02;27.17;;;14.40;;
35675;SDS011;21790;42.668;23.298;2024-02-21T05:54:28;25.50;;;14.77;;
35675;SDS011;21790;42.668;23.298;2024-02-21T05:56:54;23.30;;;14.02;;
35675;SDS011;21790;42.668;23.298;2024-02-21T05:59:22;26.02;;;14.88;;
35675;SDS011;21790;42.668;23.298;2024-02-21T06:01:55;26.35;;;14.45;;
35675;SDS011;21790;42.668;23.298;2024-02-21T06:04:22;25.38;;;13.80;;
35675;SDS011;21790;42.668;23.298;2024-02-21T06:06:48;26.67;;;15.60;;
35675;SDS011;21790;42.668;23.298;2024-02-21T06:09:15;22.77;;;13.18;;
35675;SDS011;21790;42.668;23.298;2024-02-21T06:11:41;22.98;;;13.20;;
35675;SDS011;21790;42.668;23.298;2024-02-21T06:14:07;29.77;;;14.05;;
35675;SDS011;21790;42.668;23.298;2024-02-21T06:16:33;25.33;;;13.57;;
35675;SDS011;21790;42.668;23.298;2024-02-21T06:19:00;20.98;;;13.45;;
35675;SDS011;21790;42.668;23.298;2024-02-21T06:21:28;23.05;;;13.02;;
35675;SDS011;21790;42.668;23.298;2024-02-21T06:23:55;23.85;;;13.88;;
35675;SDS011;21790;42.668;23.298;2024-02-21T06:26:21;24.95;;;14.48;;
35675;SDS011;21790;42.668;23.298;2024-02-21T06:28:47;24.35;;;13.02;;
35675;SDS011;21790;42.668;23.298;2024-02-21T06:31:14;24.10;;;15.05;;
35675;SDS011;21790;42.668;23.298;2024-02-21T06:33:41;27.30;;;15.48;;
35675;SDS011;21790;42.668;23.298;2024-02-21T06:36:07;25.40;;;14.38;;
35675;SDS011;21790;42.668;23.298;2024-02-21T06:38:33;24.70;;;14.88;;
35675;SDS011;21790;42.668;23.298;2024-02-21T06:41:00;22.42;;;13.98;;
35675;SDS011;21790;42.668;23.298;2024-02-21T06:43:27;26.30;;;15.38;;
35675;SDS011;21790;42.668;23.298;2024-02-21T06:45:54;22.20;;;13.68;;
35675;SDS011;21790;42.668;23.298;2024-02-21T06:48:21;25.15;;;15.60;;
35675;SDS011;21790;42.668;23.298;2024-02-21T06:50:48;24.83;;;15.20;;
35675;SDS011;21790;42.668;23.298;2024-02-21T06:53:14;26.55;;;14.98;;
35675;SDS011;21790;42.668;23.298;2024-02-21T06:55:40;32.05;;;15.73;;
35675;SDS011;21790;42.668;23.298;2024-02-21T06:58:06;24.00;;;14.85;;
35675;SDS011;21790;42.668;23.298;2024-02-21T07:00:36;24.73;;;14.38;;
35675;SDS011;21790;42.668;23.298;2024-02-21T07:03:03;24.95;;;15.35;;
35675;SDS011;21790;42.668;23.298;2024-02-21T07:05:29;24.52;;;15.27;;
35675;SDS011;21790;42.668;23.298;2024-02-21T07:07:55;23.50;;;13.90;;
35675;SDS011;21790;42.668;23.298;2024-02-21T07:10:21;25.63;;;15.10;;
35675;SDS011;21790;42.668;23.298;2024-02-21T07:12:47;37.40;;;20.70;;
35675;SDS011;21790;42.668;23.298;2024-02-21T07:15:14;36.72;;;17.23;;
35675;SDS011;21790;42.668;23.298;2024-02-21T07:17:40;33.60;;;17.58;;
35675;SDS011;21790;42.668;23.298;2024-02-21T07:20:07;40.47;;;18.27;;
35675;SDS011;21790;42.668;23.298;2024-02-21T07:22:33;30.42;;;17.35;;
35675;SDS011;21790;42.668;23.298;2024-02-21T07:24:59;28.52;;;16.60;;
35675;SDS011;21790;42.668;23.298;2024-02-21T07:27:26;29.80;;;17.20;;
35675;SDS011;21790;42.668;23.298;2024-02-21T07:29:56;27.10;;;16.00;;
35675;SDS011;21790;42.668;23.298;2024-02-21T07:32:22;26.17;;;16.08;;
35675;SDS011;21790;42.668;23.298;2024-02-21T07:34:48;31.38;;;17.85;;
35675;SDS011;21790;42.668;23.298;2024-02-21T07:37:14;31.55;;;18.02;;
35675;SDS011;21790;42.668;23.298;2024-02-21T07:39:40;29.83;;;16.70;;
35675;SDS011;21790;42.668;23.298;2024-02-21T07:42:07;27.70;;;15.70;;
35675;SDS011;21790;42.668;23.298;2024-02-21T07:44:33;37.45;;;17.20;;
35675;SDS011;21790;42.668;23.298;2024-02-21T07:47:00;27.70;;;16.70;;
35675;SDS011;21790;42.668;23.298;2024-02-21T07:49:27;27.27;;;16.42;;
35675;SDS011;21790;42.668;23.298;2024-02-21T07:51:53;25.98;;;16.00;;
35675;SDS011;21790;42.668;23.298;2024-02-21T07:54:19;29.33;;;16.73;;
35675;SDS011;21790;42.668;23.298;2024-02-21T07:56:45;25.25;;;15.90;;
35675;SDS011;21790;42.668;23.298;2024-02-21T07:59:12;28.70;;;17.70;;
35675;SDS011;21790;42.668;23.298;2024-02-21T08:01:39;28.38;;;15.93;;
35675;SDS011;21790;42.668;23.298;2024-02-21T08:04:05;26.60;;;15.35;;
35675;SDS011;21790;42.668;23.298;2024-02-21T08:06:31;27.48;;;15.65;;
35675;SDS011;21790;42.668;23.298;2024-02-21T08:08:58;26.63;;;15.88;;
35675;SDS011;21790;42.668;23.298;2024-02-21T08:11:25;27.08;;;15.43;;
35675;SDS011;21790;42.668;23.298;2024-02-21T08:13:52;26.52;;;16.50;;
35675;SDS011;21790;42.668;23.298;2024-02-21T08:16:18;25.33;;;15.20;;
35675;SDS011;21790;42.668;23.298;2024-02-21T08:18:44;25.30;;;15.75;;
35675;SDS011;21790;42.668;23.298;2024-02-21T08:21:11;26.52;;;16.67;;
35675;SDS011;21790;42.668;23.298;2024-02-21T08:23:37;25.25;;;15.10;;
35675;SDS011;21790;42.668;23.298;2024-02-21T08:26:03;25.83;;;15.95;;
35675;SDS011;21790;42.668;23.298;2024-02-21T08:28:29;21.10;;;14.27;;
35675;SDS011;21790;42.668;23.298;2024-02-21T08:30:55;25.52;;;14.98;;
35675;SDS011;21790;42.668;23.298;2024-02-21T08:33:21;21.77;;;13.93;;
35675;SDS011;21790;42.668;23.298;2024-02-21T08:35:51;23.65;;;15.13;;
35675;SDS011;21790;42.668;23.298;2024-02-21T08:38:17;21.60;;;14.68;;
35675;SDS011;21790;42.668;23.298;2024-02-21T08:40:44;19.45;;;13.02;;
35675;SDS011;21790;42.668;23.298;2024-02-21T08:43:10;19.73;;;13.48;;
35675;SDS011;21790;42.668;23.298;2024-02-21T08:45:37;21.02;;;13.57;;
35675;SDS011;21790;42.668;23.298;2024-02-21T08:48:04;22.95;;;13.75;;
35675;SDS011;21790;42.668;23.298;2024-02-21T08:50:30;26.13;;;14.73;;
35675;SDS011;21790;42.668;23.298;2024-02-21T08:52:56;24.05;;;13.18;;
35675;SDS011;21790;42.668;23.298;2024-02-21T08:55:23;23.42;;;13.52;;
35675;SDS011;21790;42.668;23.298;2024-02-21T08:57:49;19.02;;;12.93;;
35675;SDS011;21790;42.668;23.298;2024-02-21T09:00:15;21.55;;;13.02;;
35675;SDS011;21790;42.668;23.298;2024-02-21T09:02:42;21.52;;;13.00;;
35675;SDS011;21790;42.668;23.298;2024-02-21T09:05:09;22.23;;;12.82;;
35675;SDS011;21790;42.668;23.298;2024-02-21T09:07:35;17.65;;;11.75;;
35675;SDS011;21790;42.668;23.298;2024-02-21T09:10:02;19.17;;;12.95;;
35675;SDS011;21790;42.668;23.298;2024-02-21T09:12:29;21.50;;;13.70;;
35675;SDS011;21790;42.668;23.298;2024-02-21T09:14:56;18.83;;;12.65;;
35675;SDS011;21790;42.668;23.298;2024-02-21T09:17:23;22.92;;;12.80;;
35675;SDS011;21790;42.668;23.298;2024-02-21T09:19:50;17.95;;;11.48;;
35675;SDS011;21790;42.668;23.298;2024-02-21T09:22:17;20.80;;;12.52;;
35675;SDS011;21790;42.668;23.298;2024-02-21T09:24:43;18.80;;;12.73;;
35675;SDS011;21790;42.668;23.298;2024-02-21T09:27:10;20.05;;;11.82;;
35675;SDS011;21790;42.668;23.298;2024-02-21T09:29:37;24.25;;;12.35;;
35675;SDS011;21790;42.668;23.298;2024-02-21T09:32:04;18.65;;;11.50;;
35675;SDS011;21790;42.668;23.298;2024-02-21T09:34:31;19.58;;;13.57;;
35675;SDS011;21790;42.668;23.298;2024-02-21T09:36:57;19.20;;;11.57;;
35675;SDS011;21790;42.668;23.298;2024-02-21T09:39:23;16.95;;;11.40;;
35675;SDS011;21790;42.668;23.298;2024-02-21T09:41:50;19.42;;;13.32;;
35675;SDS011;21790;42.668;23.298;2024-02-21T09:44:21;17.65;;;11.73;;
35675;SDS011;21790;42.668;23.298;2024-02-21T09:46:57;20.05;;;12.50;;
35675;SDS011;21790;42.668;23.298;2024-02-21T12:05:13;6.95;;;5.32;;
35675;SDS011;21790;42.668;23.298;2024-02-21T12:07:39;9.98;;;6.32;;
35675;SDS011;21790;42.668;23.298;2024-02-21T12:10:07;14.27;;;6.35;;
35675;SDS011;21790;42.668;23.298;2024-02-21T12:12:37;11.10;;;6.68;;
35675;SDS011;21790;42.668;23.298;2024-02-21T12:15:05;9.15;;;6.72;;
35675;SDS011;21790;42.668;23.298;2024-02-21T12:17:35;9.95;;;6.25;;
35675;SDS011;21790;42.668;23.298;2024-02-21T12:20:02;9.52;;;6.07;;
35675;SDS011;21790;42.668;23.298;2024-02-21T12:22:30;9.90;;;6.75;;
35675;SDS011;21790;42.668;23.298;2024-02-21T12:25:04;8.20;;;6.40;;
35675;SDS011;21790;42.668;23.298;2024-02-21T12:27:41;11.70;;;6.43;;
35675;SDS011;21790;42.668;23.298;2024-02-21T12:30:07;8.52;;;6.13;;
35675;SDS011;21790;42.668;23.298;2024-02-21T12:32:35;10.70;;;6.70;;
35675;SDS011;21790;42.668;23.298;2024-02-21T12:35:01;9.05;;;6.53;;
35675;SDS011;21790;42.668;23.298;2024-02-21T12:37:28;20.20;;;6.78;;
35675;SDS011;21790;42.668;23.298;2024-02-21T12:39:54;123.72;;;11.70;;
35675;SDS011;21790;42.668;23.298;2024-02-21T12:42:20;11.98;;;6.93;;
35675;SDS011;21790;42.668;23.298;2024-02-21T12:44:48;9.27;;;6.68;;
35675;SDS011;21790;42.668;23.298;2024-02-21T12:47:15;9.70;;;6.05;;
35675;SDS011;21790;42.668;23.298;2024-02-21T12:49:41;12.80;;;5.75;;
35675;SDS011;21790;42.668;23.298;2024-02-21T12:52:08;11.68;;;6.38;;
35675;SDS011;21790;42.668;23.298;2024-02-21T12:54:34;9.65;;;6.10;;
35675;SDS011;21790;42.668;23.298;2024-02-21T12:57:00;13.85;;;6.95;;
35675;SDS011;21790;42.668;23.298;2024-02-21T12:59:28;8.10;;;5.78;;
35675;SDS011;21790;42.668;23.298;2024-02-21T13:01:54;7.97;;;5.50;;
35675;SDS011;21790;42.668;23.298;2024-02-21T13:04:21;6.85;;;5.30;;
35675;SDS011;21790;42.668;23.298;2024-02-21T13:06:48;9.73;;;6.88;;
35675;SDS011;21790;42.668;23.298;2024-02-21T13:09:17;11.50;;;7.28;;
35675;SDS011;21790;42.668;23.298;2024-02-21T13:11:43;12.35;;;8.77;;
35675;SDS011;21790;42.668;23.298;2024-02-21T13:14:11;14.13;;;8.80;;
35675;SDS011;21790;42.668;23.298;2024-02-21T13:16:38;17.20;;;9.40;;
35675;SDS011;21790;42.668;23.298;2024-02-21T13:19:07;17.25;;;8.15;;
35675;SDS011;21790;42.668;23.298;2024-02-21T13:21:35;12.95;;;7.28;;
35675;SDS011;21790;42.668;23.298;2024-02-21T13:24:01;12.25;;;8.32;;
35675;SDS011;21790;42.668;23.298;2024-02-21T13:26:28;14.38;;;8.93;;
35675;SDS011;21790;42.668;23.298;2024-02-21T13:28:54;16.33;;;8.20;;
35675;SDS011;21790;42.668;23.298;2024-02-21T13:31:20;13.68;;;8.45;;
35675;SDS011;21790;42.668;23.298;2024-02-21T13:33:46;13.13;;;7.93;;
35675;SDS011;21790;42.668;23.298;2024-02-21T13:36:14;11.82;;;8.35;;
35675;SDS011;21790;42.668;23.298;2024-02-21T13:38:40;25.05;;;8.63;;
35675;SDS011;21790;42.668;23.298;2024-02-21T13:41:07;17.45;;;7.70;;
35675;SDS011;21790;42.668;23.298;2024-02-21T13:43:33;13.32;;;7.07;;
35675;SDS011;21790;42.668;23.298;2024-02-21T13:46:00;12.50;;;6.50;;
35675;SDS011;21790;42.668;23.298;2024-02-21T13:48:34;11.32;;;7.20;;
35675;SDS011;21790;42.668;23.298;2024-02-21T13:51:01;9.55;;;6.68;;
35675;SDS011;21790;42.668;23.298;2024-02-21T13:53:29;11.55;;;7.30;;
35675;SDS011;21790;42.668;23.298;2024-02-21T13:55:56;16.23;;;7.60;;
35675;SDS011;21790;42.668;23.298;2024-02-21T13:58:23;12.60;;;7.43;;
35675;SDS011;21790;42.668;23.298;2024-02-21T14:00:51;16.15;;;8.20;;
35675;SDS011;21790;42.668;23.298;2024-02-21T14:03:17;18.17;;;7.97;;
35675;SDS011;21790;42.668;23.298;2024-02-21T14:05:45;12.10;;;7.70;;
35675;SDS011;21790;42.668;23.298;2024-02-21T14:08:13;13.18;;;7.75;;
35675;SDS011;21790;42.668;23.298;2024-02-21T14:10:40;10.32;;;7.10;;
35675;SDS011;21790;42.668;23.298;2024-02-21T14:13:06;12.18;;;7.40;;
35675;SDS011;21790;42.668;23.298;2024-02-21T14:15:32;11.88;;;7.28;;
35675;SDS011;21790;42.668;23.298;2024-02-21T14:17:58;16.17;;;8.15;;
35675;SDS011;21790;42.668;23.298;2024-02-21T14:20:24;18.30;;;7.30;;
35675;SDS011;21790;42.668;23.298;2024-02-21T14:22:51;21.40;;;7.50;;
35675;SDS011;21790;42.668;23.298;2024-02-21T14:25:17;11.90;;;7.85;;
35675;SDS011;21790;42.668;23.298;2024-02-21T14:27:43;12.98;;;7.13;;
35675;SDS011;21790;42.668;23.298;2024-02-21T14:30:10;14.73;;;7.68;;
35675;SDS011;21790;42.668;23.298;2024-02-21T14:32:37;14.60;;;7.53;;
35675;SDS011;21790;42.668;23.298;2024-02-21T14:35:07;12.73;;;7.60;;
35675;SDS011;21790;42.668;23.298;2024-02-21T14:37:33;13.18;;;7.90;;
35675;SDS011;21790;42.668;23.298;2024-02-21T14:39:59;16.88;;;8.43;;
35675;SDS011;21790;42.668;23.298;2024-02-21T14:42:26;14.45;;;7.75;;
35675;SDS011;21790;42.668;23.298;2024-02-21T14:44:52;17.35;;;8.95;;
35675;SDS011;21790;42.668;23.298;2024-02-21T14:47:28;15.15;;;8.13;;
35675;SDS011;21790;42.668;23.298;2024-02-21T14:49:56;27.27;;;9.05;;
35675;SDS011;21790;42.668;23.298;2024-02-21T14:52:22;21.05;;;8.80;;
35675;SDS011;21790;42.668;23.298;2024-02-21T14:54:50;16.52;;;9.13;;
35675;SDS011;21790;42.668;23.298;2024-02-21T14:57:17;17.67;;;9.02;;
35675;SDS011;21790;42.668;23.298;2024-02-21T14:59:45;15.43;;;8.35;;
35675;SDS011;21790;42.668;23.298;2024-02-21T15:02:11;18.45;;;8.48;;
35675;SDS011;21790;42.668;23.298;2024-02-21T15:04:38;13.35;;;7.53;;
35675;SDS011;21790;42.668;23.298;2024-02-21T15:07:04;15.95;;;7.50;;
35675;SDS011;21790;42.668;23.298;2024-02-21T15:09:30;17.88;;;7.72;;
35675;SDS011;21790;42.668;23.298;2024-02-21T15:11:57;14.10;;;8.27;;
35675;SDS011;21790;42.668;23.298;2024-02-21T15:14:24;11.32;;;7.60;;
35675;SDS011;21790;42.668;23.298;2024-02-21T15:16:49;20.38;;;7.97;;
35675;SDS011;21790;42.668;23.298;2024-02-21T15:19:16;12.57;;;8.30;;
35675;SDS011;21790;42.668;23.298;2024-02-21T15:21:42;20.27;;;7.40;;
35675;SDS011;21790;42.668;23.298;2024-02-21T15:24:09;25.73;;;9.57;;
35675;SDS011;21790;42.668;23.298;2024-02-21T15:26:36;18.38;;;8.57;;
35675;SDS011;21790;42.668;23.298;2024-02-21T15:29:02;14.32;;;7.45;;
35675;SDS011;21790;42.668;23.298;2024-02-21T15:31:30;13.27;;;8.45;;
35675;SDS011;21790;42.668;23.298;2024-02-21T15:33:56;15.70;;;8.38;;
35675;SDS011;21790;42.668;23.298;2024-02-21T15:36:23;19.67;;;8.75;;
35675;SDS011;21790;42.668;23.298;2024-02-21T15:38:49;15.65;;;8.68;;
35675;SDS011;21790;42.668;23.298;2024-02-21T15:41:17;21.92;;;8.90;;
35675;SDS011;21790;42.668;23.298;2024-02-21T15:43:46;19.63;;;9.48;;
35675;SDS011;21790;42.668;23.298;2024-02-21T15:46:14;17.13;;;9.45;;
35675;SDS011;21790;42.668;23.298;2024-02-21T15:48:40;19.50;;;9.40;;
35675;SDS011;21790;42.668;23.298;2024-02-21T15:51:07;16.60;;;9.40;;
35675;SDS011;21790;42.668;23.298;2024-02-21T15:53:33;18.55;;;9.32;;
35675;SDS011;21790;42.668;23.298;2024-02-21T15:56:00;16.63;;;9.02;;
35675;SDS011;21790;42.668;23.298;2024-02-21T15:58:28;15.77;;;9.15;;
35675;SDS011;21790;42.668;23.298;2024-02-21T16:00:54;27.40;;;9.20;;
35675;SDS011;21790;42.668;23.298;2024-02-21T16:03:20;15.20;;;9.65;;
35675;SDS011;21790;42.668;23.298;2024-02-21T16:05:47;22.27;;;14.57;;
35675;SDS011;21790;42.668;23.298;2024-02-21T16:08:13;23.80;;;10.80;;
35675;SDS011;21790;42.668;23.298;2024-02-21T16:10:43;23.33;;;11.00;;
35675;SDS011;21790;42.668;23.298;2024-02-21T16:13:09;18.75;;;10.52;;
35675;SDS011;21790;42.668;23.298;2024-02-21T16:15:36;17.65;;;10.20;;
35675;SDS011;21790;42.668;23.298;2024-02-21T16:18:03;25.02;;;10.55;;
35675;SDS011;21790;42.668;23.298;2024-02-21T16:20:30;15.40;;;9.85;;
35675;SDS011;21790;42.668;23.298;2024-02-21T16:22:56;18.42;;;10.45;;
35675;SDS011;21790;42.668;23.298;2024-02-21T16:25:28;19.65;;;10.68;;
35675;SDS011;21790;42.668;23.298;2024-02-21T16:27:55;18.45;;;10.80;;
35675;SDS011;21790;42.668;23.298;2024-02-21T16:30:22;27.55;;;10.45;;
35675;SDS011;21790;42.668;23.298;2024-02-21T16:32:49;20.58;;;10.27;;
35675;SDS011;21790;42.668;23.298;2024-02-21T16:35:17;17.40;;;9.68;;
35675;SDS011;21790;42.668;23.298;2024-02-21T16:37:44;23.15;;;11.00;;
35675;SDS011;21790;42.668;23.298;2024-02-21T16:40:11;21.02;;;11.98;;